sensor_id;sensor_type;location;lat;lon;timestamp;P1;durP1;ratioP1;P2;durP2;ratioP2
44588;SDS011;30298;52.562;13.414;2022-12-20T00:02:18;27.43;;;14.50;;
44588;SDS011;30298;52.562;13.414;2022-12-20T00:04:44;26.00;;;12.47;;
44588;SDS011;30298;52.562;13.414;2022-12-20T00:07:09;25.85;;;13.45;;
44588;SDS011;30298;52.562;13.414;2022-12-20T00:09:34;25.57;;;14.83;;
44588;SDS011;30298;52.562;13.414;2022-12-20T00:12:00;27.48;;;12.95;;
44588;SDS011;30298;52.562;13.414;2022-12-20T00:14:25;24.60;;;11.67;;
44588;SDS011;30298;52.562;13.414;2022-12-20T00:16:50;28.23;;;14.10;;
44588;SDS011;30298;52.562;13.414;2022-12-20T00:19:16;24.20;;;14.87;;
44588;SDS011;30298;52.562;13.414;2022-12-20T00:21:41;24.67;;;13.00;;
44588;SDS011;30298;52.562;13.414;2022-12-20T00:24:06;27.30;;;12.97;;
44588;SDS011;30298;52.562;13.414;2022-12-20T00:26:32;27.00;;;13.60;;
44588;SDS011;30298;52.562;13.414;2022-12-20T00:28:58;21.50;;;12.05;;
44588;SDS011;30298;52.562;13.414;2022-12-20T00:31:24;23.40;;;12.30;;
44588;SDS011;30298;52.562;13.414;2022-12-20T00:33:50;26.10;;;13.50;;
44588;SDS011;30298;52.562;13.414;2022-12-20T00:36:16;28.15;;;13.70;;
44588;SDS011;30298;52.562;13.414;2022-12-20T00:38:45;23.90;;;12.77;;
44588;SDS011;30298;52.562;13.414;2022-12-20T00:41:12;28.02;;;14.10;;
44588;SDS011;30298;52.562;13.414;2022-12-20T00:43:38;24.38;;;11.80;;
44588;SDS011;30298;52.562;13.414;2022-12-20T00:46:04;25.38;;;13.20;;
44588;SDS011;30298;52.562;13.414;2022-12-20T00:48:30;28.95;;;14.25;;
44588;SDS011;30298;52.562;13.414;2022-12-20T00:51:01;24.10;;;13.02;;
44588;SDS011;30298;52.562;13.414;2022-12-20T00:53:27;25.45;;;12.63;;
44588;SDS011;30298;52.562;13.414;2022-12-20T00:55:53;23.48;;;12.02;;
44588;SDS011;30298;52.562;13.414;2022-12-20T00:58:19;25.03;;;12.87;;
44588;SDS011;30298;52.562;13.414;2022-12-20T01:00:44;27.73;;;13.03;;
44588;SDS011;30298;52.562;13.414;2022-12-20T01:03:09;27.00;;;12.80;;
44588;SDS011;30298;52.562;13.414;2022-12-20T01:05:35;25.00;;;12.03;;
44588;SDS011;30298;52.562;13.414;2022-12-20T01:08:00;23.83;;;13.40;;
44588;SDS011;30298;52.562;13.414;2022-12-20T01:10:25;24.60;;;12.50;;
44588;SDS011;30298;52.562;13.414;2022-12-20T01:12:52;24.77;;;13.57;;
44588;SDS011;30298;52.562;13.414;2022-12-20T01:15:17;24.75;;;12.38;;
44588;SDS011;30298;52.562;13.414;2022-12-20T01:17:45;23.93;;;12.37;;
44588;SDS011;30298;52.562;13.414;2022-12-20T01:20:10;25.00;;;12.85;;
44588;SDS011;30298;52.562;13.414;2022-12-20T01:22:36;24.90;;;12.73;;
44588;SDS011;30298;52.562;13.414;2022-12-20T01:25:01;23.73;;;12.53;;
44588;SDS011;30298;52.562;13.414;2022-12-20T01:27:26;26.50;;;12.27;;
44588;SDS011;30298;52.562;13.414;2022-12-20T01:29:52;20.73;;;11.75;;
44588;SDS011;30298;52.562;13.414;2022-12-20T01:32:18;23.23;;;12.53;;
44588;SDS011;30298;52.562;13.414;2022-12-20T01:34:43;21.93;;;11.53;;
44588;SDS011;30298;52.562;13.414;2022-12-20T01:37:08;20.20;;;11.63;;
44588;SDS011;30298;52.562;13.414;2022-12-20T01:39:34;23.10;;;10.95;;
44588;SDS011;30298;52.562;13.414;2022-12-20T01:41:59;23.47;;;12.40;;
44588;SDS011;30298;52.562;13.414;2022-12-20T01:46:50;26.30;;;13.17;;
44588;SDS011;30298;52.562;13.414;2022-12-20T01:51:55;26.58;;;12.48;;
44588;SDS011;30298;52.562;13.414;2022-12-20T01:54:26;23.67;;;12.57;;
44588;SDS011;30298;52.562;13.414;2022-12-20T01:56:58;23.55;;;12.00;;
44588;SDS011;30298;52.562;13.414;2022-12-20T01:59:25;18.38;;;11.15;;
44588;SDS011;30298;52.562;13.414;2022-12-20T02:01:50;19.15;;;11.70;;
44588;SDS011;30298;52.562;13.414;2022-12-20T02:04:16;20.40;;;10.30;;
44588;SDS011;30298;52.562;13.414;2022-12-20T02:06:41;20.77;;;12.00;;
44588;SDS011;30298;52.562;13.414;2022-12-20T02:09:06;23.73;;;12.63;;
44588;SDS011;30298;52.562;13.414;2022-12-20T02:12:00;20.92;;;11.23;;
44588;SDS011;30298;52.562;13.414;2022-12-20T02:14:30;22.73;;;11.55;;
44588;SDS011;30298;52.562;13.414;2022-12-20T02:19:49;22.35;;;12.45;;
44588;SDS011;30298;52.562;13.414;2022-12-20T02:30:34;22.92;;;11.85;;
44588;SDS011;30298;52.562;13.414;2022-12-20T02:33:02;22.63;;;11.27;;
44588;SDS011;30298;52.562;13.414;2022-12-20T02:35:30;22.58;;;11.93;;
44588;SDS011;30298;52.562;13.414;2022-12-20T02:37:57;22.30;;;11.68;;
44588;SDS011;30298;52.562;13.414;2022-12-20T02:40:27;21.50;;;12.45;;
44588;SDS011;30298;52.562;13.414;2022-12-20T02:42:54;20.48;;;11.75;;
44588;SDS011;30298;52.562;13.414;2022-12-20T02:45:23;23.63;;;12.32;;
44588;SDS011;30298;52.562;13.414;2022-12-20T02:47:51;19.30;;;10.85;;
44588;SDS011;30298;52.562;13.414;2022-12-20T02:50:20;20.73;;;12.10;;
44588;SDS011;30298;52.562;13.414;2022-12-20T02:52:46;20.75;;;11.48;;
44588;SDS011;30298;52.562;13.414;2022-12-20T02:55:12;21.83;;;11.65;;
44588;SDS011;30298;52.562;13.414;2022-12-20T02:57:41;22.95;;;11.60;;
44588;SDS011;30298;52.562;13.414;2022-12-20T03:00:10;20.33;;;11.02;;
44588;SDS011;30298;52.562;13.414;2022-12-20T03:02:36;19.27;;;10.77;;
44588;SDS011;30298;52.562;13.414;2022-12-20T03:05:21;21.60;;;10.85;;
44588;SDS011;30298;52.562;13.414;2022-12-20T03:07:47;20.35;;;10.95;;
44588;SDS011;30298;52.562;13.414;2022-12-20T03:10:12;18.60;;;10.70;;
44588;SDS011;30298;52.562;13.414;2022-12-20T03:12:38;18.67;;;10.98;;
44588;SDS011;30298;52.562;13.414;2022-12-20T03:15:03;22.77;;;11.10;;
44588;SDS011;30298;52.562;13.414;2022-12-20T03:17:29;22.60;;;11.50;;
44588;SDS011;30298;52.562;13.414;2022-12-20T03:19:54;22.30;;;11.57;;
44588;SDS011;30298;52.562;13.414;2022-12-20T03:22:19;20.77;;;10.37;;
44588;SDS011;30298;52.562;13.414;2022-12-20T03:24:44;20.73;;;11.77;;
44588;SDS011;30298;52.562;13.414;2022-12-20T03:27:10;19.77;;;10.30;;
44588;SDS011;30298;52.562;13.414;2022-12-20T03:29:35;20.03;;;11.03;;
44588;SDS011;30298;52.562;13.414;2022-12-20T03:32:00;19.37;;;11.40;;
44588;SDS011;30298;52.562;13.414;2022-12-20T03:34:26;17.03;;;10.40;;
44588;SDS011;30298;52.562;13.414;2022-12-20T03:36:51;20.43;;;10.57;;
44588;SDS011;30298;52.562;13.414;2022-12-20T03:39:16;17.47;;;10.53;;
44588;SDS011;30298;52.562;13.414;2022-12-20T03:41:42;19.03;;;10.60;;
44588;SDS011;30298;52.562;13.414;2022-12-20T03:44:07;21.17;;;11.33;;
44588;SDS011;30298;52.562;13.414;2022-12-20T03:46:32;16.60;;;10.10;;
44588;SDS011;30298;52.562;13.414;2022-12-20T03:48:58;17.50;;;10.57;;
44588;SDS011;30298;52.562;13.414;2022-12-20T03:51:23;18.73;;;10.87;;
44588;SDS011;30298;52.562;13.414;2022-12-20T03:53:49;19.02;;;10.75;;
44588;SDS011;30298;52.562;13.414;2022-12-20T03:56:14;19.33;;;9.97;;
44588;SDS011;30298;52.562;13.414;2022-12-20T03:58:39;20.83;;;11.53;;
44588;SDS011;30298;52.562;13.414;2022-12-20T04:01:21;20.07;;;9.90;;
44588;SDS011;30298;52.562;13.414;2022-12-20T04:03:46;17.55;;;9.68;;
44588;SDS011;30298;52.562;13.414;2022-12-20T04:06:11;21.92;;;11.02;;
44588;SDS011;30298;52.562;13.414;2022-12-20T04:08:37;18.30;;;10.50;;
44588;SDS011;30298;52.562;13.414;2022-12-20T04:11:02;19.17;;;9.70;;
44588;SDS011;30298;52.562;13.414;2022-12-20T04:13:44;20.13;;;11.40;;
44588;SDS011;30298;52.562;13.414;2022-12-20T04:18:34;18.98;;;9.60;;
44588;SDS011;30298;52.562;13.414;2022-12-20T04:21:00;19.73;;;11.00;;
44588;SDS011;30298;52.562;13.414;2022-12-20T04:23:25;17.20;;;10.90;;
44588;SDS011;30298;52.562;13.414;2022-12-20T04:25:51;21.03;;;11.20;;
44588;SDS011;30298;52.562;13.414;2022-12-20T04:28:16;20.27;;;11.03;;
44588;SDS011;30298;52.562;13.414;2022-12-20T04:30:41;22.90;;;11.97;;
44588;SDS011;30298;52.562;13.414;2022-12-20T04:33:07;18.33;;;10.93;;
44588;SDS011;30298;52.562;13.414;2022-12-20T04:35:32;18.50;;;11.40;;
44588;SDS011;30298;52.562;13.414;2022-12-20T04:37:58;23.47;;;11.10;;
44588;SDS011;30298;52.562;13.414;2022-12-20T04:40:23;18.73;;;10.07;;
44588;SDS011;30298;52.562;13.414;2022-12-20T04:42:48;23.30;;;11.80;;
44588;SDS011;30298;52.562;13.414;2022-12-20T04:45:13;23.67;;;10.37;;
44588;SDS011;30298;52.562;13.414;2022-12-20T04:47:39;19.57;;;10.90;;
44588;SDS011;30298;52.562;13.414;2022-12-20T04:50:05;18.60;;;11.43;;
44588;SDS011;30298;52.562;13.414;2022-12-20T04:55:14;22.63;;;11.13;;
44588;SDS011;30298;52.562;13.414;2022-12-20T04:57:40;18.00;;;10.70;;
44588;SDS011;30298;52.562;13.414;2022-12-20T05:00:05;21.00;;;10.70;;
44588;SDS011;30298;52.562;13.414;2022-12-20T05:04:57;20.35;;;10.65;;
44588;SDS011;30298;52.562;13.414;2022-12-20T05:07:22;18.40;;;10.47;;
44588;SDS011;30298;52.562;13.414;2022-12-20T05:09:47;17.73;;;10.47;;
44588;SDS011;30298;52.562;13.414;2022-12-20T05:12:12;18.83;;;10.30;;
44588;SDS011;30298;52.562;13.414;2022-12-20T05:14:38;18.63;;;10.40;;
44588;SDS011;30298;52.562;13.414;2022-12-20T05:17:03;21.30;;;10.97;;
44588;SDS011;30298;52.562;13.414;2022-12-20T05:19:28;19.10;;;11.03;;
44588;SDS011;30298;52.562;13.414;2022-12-20T05:21:53;22.07;;;11.87;;
44588;SDS011;30298;52.562;13.414;2022-12-20T05:24:37;20.13;;;9.98;;
44588;SDS011;30298;52.562;13.414;2022-12-20T05:27:21;18.67;;;10.50;;
44588;SDS011;30298;52.562;13.414;2022-12-20T05:29:46;19.37;;;10.67;;
44588;SDS011;30298;52.562;13.414;2022-12-20T05:32:11;19.77;;;11.67;;
44588;SDS011;30298;52.562;13.414;2022-12-20T05:34:37;18.03;;;10.33;;
44588;SDS011;30298;52.562;13.414;2022-12-20T05:37:02;20.67;;;11.80;;
44588;SDS011;30298;52.562;13.414;2022-12-20T05:39:27;17.50;;;10.87;;
44588;SDS011;30298;52.562;13.414;2022-12-20T05:41:53;20.70;;;11.48;;
44588;SDS011;30298;52.562;13.414;2022-12-20T05:44:18;22.63;;;11.80;;
44588;SDS011;30298;52.562;13.414;2022-12-20T05:46:46;23.15;;;12.23;;
44588;SDS011;30298;52.562;13.414;2022-12-20T05:49:11;23.73;;;13.63;;
44588;SDS011;30298;52.562;13.414;2022-12-20T05:51:36;19.47;;;12.10;;
44588;SDS011;30298;52.562;13.414;2022-12-20T05:54:02;22.53;;;11.90;;
44588;SDS011;30298;52.562;13.414;2022-12-20T05:56:27;22.57;;;13.07;;
44588;SDS011;30298;52.562;13.414;2022-12-20T05:58:52;22.33;;;12.37;;
44588;SDS011;30298;52.562;13.414;2022-12-20T06:01:18;20.10;;;11.50;;
44588;SDS011;30298;52.562;13.414;2022-12-20T06:03:44;31.42;;;12.75;;
44588;SDS011;30298;52.562;13.414;2022-12-20T06:06:10;18.70;;;11.30;;
44588;SDS011;30298;52.562;13.414;2022-12-20T06:08:35;18.17;;;10.80;;
44588;SDS011;30298;52.562;13.414;2022-12-20T06:11:00;21.63;;;10.60;;
44588;SDS011;30298;52.562;13.414;2022-12-20T06:13:28;18.83;;;11.05;;
44588;SDS011;30298;52.562;13.414;2022-12-20T06:15:54;22.33;;;11.50;;
44588;SDS011;30298;52.562;13.414;2022-12-20T06:18:19;17.37;;;11.03;;
44588;SDS011;30298;52.562;13.414;2022-12-20T06:20:48;20.50;;;11.00;;
44588;SDS011;30298;52.562;13.414;2022-12-20T06:23:16;21.13;;;10.88;;
44588;SDS011;30298;52.562;13.414;2022-12-20T06:25:45;19.25;;;11.32;;
44588;SDS011;30298;52.562;13.414;2022-12-20T06:28:10;20.85;;;11.43;;
44588;SDS011;30298;52.562;13.414;2022-12-20T06:30:36;18.90;;;10.90;;
44588;SDS011;30298;52.562;13.414;2022-12-20T06:33:01;20.27;;;11.60;;
44588;SDS011;30298;52.562;13.414;2022-12-20T06:35:27;18.97;;;10.80;;
44588;SDS011;30298;52.562;13.414;2022-12-20T06:37:53;22.13;;;10.65;;
44588;SDS011;30298;52.562;13.414;2022-12-20T06:40:18;21.08;;;11.57;;
44588;SDS011;30298;52.562;13.414;2022-12-20T06:42:44;21.45;;;13.02;;
44588;SDS011;30298;52.562;13.414;2022-12-20T06:45:09;20.50;;;10.67;;
44588;SDS011;30298;52.562;13.414;2022-12-20T06:47:35;18.73;;;11.82;;
44588;SDS011;30298;52.562;13.414;2022-12-20T06:50:01;25.20;;;12.52;;
44588;SDS011;30298;52.562;13.414;2022-12-20T06:52:27;19.77;;;11.40;;
44588;SDS011;30298;52.562;13.414;2022-12-20T06:54:52;22.53;;;12.17;;
44588;SDS011;30298;52.562;13.414;2022-12-20T06:57:18;24.13;;;12.93;;
44588;SDS011;30298;52.562;13.414;2022-12-20T06:59:43;19.55;;;12.77;;
44588;SDS011;30298;52.562;13.414;2022-12-20T07:02:10;19.58;;;12.95;;
44588;SDS011;30298;52.562;13.414;2022-12-20T07:04:36;19.77;;;11.15;;
44588;SDS011;30298;52.562;13.414;2022-12-20T07:07:02;24.33;;;12.37;;
44588;SDS011;30298;52.562;13.414;2022-12-20T07:09:27;21.00;;;11.57;;
44588;SDS011;30298;52.562;13.414;2022-12-20T07:11:53;25.88;;;12.30;;
44588;SDS011;30298;52.562;13.414;2022-12-20T07:14:18;27.93;;;13.43;;
44588;SDS011;30298;52.562;13.414;2022-12-20T07:16:43;26.23;;;12.10;;
44588;SDS011;30298;52.562;13.414;2022-12-20T07:19:10;25.70;;;12.93;;
44588;SDS011;30298;52.562;13.414;2022-12-20T07:24:00;21.33;;;11.30;;
44588;SDS011;30298;52.562;13.414;2022-12-20T07:26:25;23.50;;;12.53;;
44588;SDS011;30298;52.562;13.414;2022-12-20T07:28:51;24.30;;;13.17;;
44588;SDS011;30298;52.562;13.414;2022-12-20T07:31:16;25.90;;;12.40;;
44588;SDS011;30298;52.562;13.414;2022-12-20T07:33:41;29.50;;;14.23;;
44588;SDS011;30298;52.562;13.414;2022-12-20T07:36:08;22.03;;;12.10;;
44588;SDS011;30298;52.562;13.414;2022-12-20T07:38:34;25.23;;;13.30;;
44588;SDS011;30298;52.562;13.414;2022-12-20T07:41:00;24.13;;;12.98;;
44588;SDS011;30298;52.562;13.414;2022-12-20T07:43:25;24.80;;;13.30;;
44588;SDS011;30298;52.562;13.414;2022-12-20T07:45:54;24.50;;;13.30;;
44588;SDS011;30298;52.562;13.414;2022-12-20T07:48:20;24.60;;;13.23;;
44588;SDS011;30298;52.562;13.414;2022-12-20T07:50:45;24.43;;;12.67;;
44588;SDS011;30298;52.562;13.414;2022-12-20T07:53:11;25.30;;;14.27;;
44588;SDS011;30298;52.562;13.414;2022-12-20T07:55:36;27.40;;;13.60;;
44588;SDS011;30298;52.562;13.414;2022-12-20T07:58:04;27.42;;;13.10;;
44588;SDS011;30298;52.562;13.414;2022-12-20T08:00:30;24.55;;;13.48;;
44588;SDS011;30298;52.562;13.414;2022-12-20T08:02:57;28.42;;;14.50;;
44588;SDS011;30298;52.562;13.414;2022-12-20T08:05:24;29.52;;;14.50;;
44588;SDS011;30298;52.562;13.414;2022-12-20T08:07:50;29.52;;;14.30;;
44588;SDS011;30298;52.562;13.414;2022-12-20T08:10:17;28.50;;;13.38;;
44588;SDS011;30298;52.562;13.414;2022-12-20T08:12:44;30.45;;;15.63;;
44588;SDS011;30298;52.562;13.414;2022-12-20T08:17:35;27.55;;;14.77;;
44588;SDS011;30298;52.562;13.414;2022-12-20T08:20:00;26.33;;;14.40;;
44588;SDS011;30298;52.562;13.414;2022-12-20T08:22:25;27.60;;;14.97;;
44588;SDS011;30298;52.562;13.414;2022-12-20T08:24:51;25.03;;;14.07;;
44588;SDS011;30298;52.562;13.414;2022-12-20T08:27:17;25.90;;;14.20;;
44588;SDS011;30298;52.562;13.414;2022-12-20T08:29:42;30.47;;;15.67;;
44588;SDS011;30298;52.562;13.414;2022-12-20T08:32:08;30.27;;;15.10;;
44588;SDS011;30298;52.562;13.414;2022-12-20T08:34:34;31.95;;;15.85;;
44588;SDS011;30298;52.562;13.414;2022-12-20T08:36:59;31.67;;;16.45;;
44588;SDS011;30298;52.562;13.414;2022-12-20T08:39:24;31.33;;;17.13;;
44588;SDS011;30298;52.562;13.414;2022-12-20T08:41:50;26.00;;;15.17;;
44588;SDS011;30298;52.562;13.414;2022-12-20T08:44:15;28.73;;;15.40;;
44588;SDS011;30298;52.562;13.414;2022-12-20T08:46:40;34.17;;;16.23;;
44588;SDS011;30298;52.562;13.414;2022-12-20T08:49:06;32.03;;;15.87;;
44588;SDS011;30298;52.562;13.414;2022-12-20T08:51:31;30.73;;;14.87;;
44588;SDS011;30298;52.562;13.414;2022-12-20T08:53:56;28.30;;;14.97;;
44588;SDS011;30298;52.562;13.414;2022-12-20T08:56:22;33.92;;;17.08;;
44588;SDS011;30298;52.562;13.414;2022-12-20T08:58:48;32.45;;;16.90;;
44588;SDS011;30298;52.562;13.414;2022-12-20T09:01:14;30.17;;;15.63;;
44588;SDS011;30298;52.562;13.414;2022-12-20T09:03:39;33.88;;;16.98;;
44588;SDS011;30298;52.562;13.414;2022-12-20T09:06:09;29.50;;;16.53;;
44588;SDS011;30298;52.562;13.414;2022-12-20T09:08:35;33.63;;;16.80;;
44588;SDS011;30298;52.562;13.414;2022-12-20T09:11:08;30.50;;;16.48;;
44588;SDS011;30298;52.562;13.414;2022-12-20T09:13:34;31.92;;;16.45;;
44588;SDS011;30298;52.562;13.414;2022-12-20T09:16:04;33.70;;;16.25;;
44588;SDS011;30298;52.562;13.414;2022-12-20T09:18:29;35.15;;;18.13;;
44588;SDS011;30298;52.562;13.414;2022-12-20T09:20:55;36.33;;;16.73;;
44588;SDS011;30298;52.562;13.414;2022-12-20T09:23:23;32.95;;;16.00;;
44588;SDS011;30298;52.562;13.414;2022-12-20T09:25:48;29.33;;;17.40;;
44588;SDS011;30298;52.562;13.414;2022-12-20T09:28:13;29.47;;;15.77;;
44588;SDS011;30298;52.562;13.414;2022-12-20T09:30:39;27.38;;;15.70;;
44588;SDS011;30298;52.562;13.414;2022-12-20T09:33:04;29.07;;;14.80;;
44588;SDS011;30298;52.562;13.414;2022-12-20T09:35:29;28.83;;;15.73;;
44588;SDS011;30298;52.562;13.414;2022-12-20T09:37:57;30.05;;;14.68;;
44588;SDS011;30298;52.562;13.414;2022-12-20T09:40:23;29.07;;;15.40;;
44588;SDS011;30298;52.562;13.414;2022-12-20T09:42:49;28.00;;;14.70;;
44588;SDS011;30298;52.562;13.414;2022-12-20T09:45:21;27.93;;;14.20;;
44588;SDS011;30298;52.562;13.414;2022-12-20T09:47:48;25.52;;;13.40;;
44588;SDS011;30298;52.562;13.414;2022-12-20T09:50:14;25.85;;;13.63;;
44588;SDS011;30298;52.562;13.414;2022-12-20T09:52:54;24.15;;;14.63;;
44588;SDS011;30298;52.562;13.414;2022-12-20T09:55:37;23.48;;;13.90;;
44588;SDS011;30298;52.562;13.414;2022-12-20T09:58:18;26.55;;;14.63;;
44588;SDS011;30298;52.562;13.414;2022-12-20T10:00:47;22.63;;;12.57;;
44588;SDS011;30298;52.562;13.414;2022-12-20T10:03:17;27.15;;;14.15;;
44588;SDS011;30298;52.562;13.414;2022-12-20T10:10:53;25.52;;;12.45;;
44588;SDS011;30298;52.562;13.414;2022-12-20T10:16:03;22.23;;;12.30;;
44588;SDS011;30298;52.562;13.414;2022-12-20T10:23:36;18.95;;;11.48;;
44588;SDS011;30298;52.562;13.414;2022-12-20T10:26:04;20.85;;;13.02;;
44588;SDS011;30298;52.562;13.414;2022-12-20T10:28:33;21.38;;;12.45;;
44588;SDS011;30298;52.562;13.414;2022-12-20T10:31:14;20.85;;;12.05;;
44588;SDS011;30298;52.562;13.414;2022-12-20T10:33:40;22.55;;;12.25;;
44588;SDS011;30298;52.562;13.414;2022-12-20T10:38:47;26.83;;;12.93;;
44588;SDS011;30298;52.562;13.414;2022-12-20T10:41:14;22.42;;;11.63;;
44588;SDS011;30298;52.562;13.414;2022-12-20T10:43:44;21.60;;;12.65;;
44588;SDS011;30298;52.562;13.414;2022-12-20T10:46:10;24.77;;;12.85;;
44588;SDS011;30298;52.562;13.414;2022-12-20T10:48:38;26.55;;;13.70;;
44588;SDS011;30298;52.562;13.414;2022-12-20T10:53:36;25.23;;;12.90;;
44588;SDS011;30298;52.562;13.414;2022-12-20T10:56:20;22.10;;;11.02;;
44588;SDS011;30298;52.562;13.414;2022-12-20T10:58:53;20.67;;;12.68;;
44588;SDS011;30298;52.562;13.414;2022-12-20T11:01:19;18.17;;;12.00;;
44588;SDS011;30298;52.562;13.414;2022-12-20T11:06:18;22.70;;;11.35;;
44588;SDS011;30298;52.562;13.414;2022-12-20T11:08:43;18.80;;;11.50;;
44588;SDS011;30298;52.562;13.414;2022-12-20T11:11:10;18.13;;;11.07;;
44588;SDS011;30298;52.562;13.414;2022-12-20T11:13:36;18.02;;;11.25;;
44588;SDS011;30298;52.562;13.414;2022-12-20T11:16:02;17.87;;;11.07;;
44588;SDS011;30298;52.562;13.414;2022-12-20T11:21:09;21.48;;;10.93;;
44588;SDS011;30298;52.562;13.414;2022-12-20T11:23:40;21.65;;;11.15;;
44588;SDS011;30298;52.562;13.414;2022-12-20T11:26:30;18.75;;;10.95;;
44588;SDS011;30298;52.562;13.414;2022-12-20T11:44:51;19.13;;;10.45;;
44588;SDS011;30298;52.562;13.414;2022-12-20T11:54:46;18.02;;;10.55;;
44588;SDS011;30298;52.562;13.414;2022-12-20T11:57:14;17.65;;;9.68;;
44588;SDS011;30298;52.562;13.414;2022-12-20T12:02:13;20.48;;;10.57;;
44588;SDS011;30298;52.562;13.414;2022-12-20T12:04:59;22.17;;;10.52;;
44588;SDS011;30298;52.562;13.414;2022-12-20T12:07:27;19.80;;;10.05;;
44588;SDS011;30298;52.562;13.414;2022-12-20T12:22:42;20.60;;;11.07;;
44588;SDS011;30298;52.562;13.414;2022-12-20T12:25:10;16.88;;;9.85;;
44588;SDS011;30298;52.562;13.414;2022-12-20T12:27:38;17.98;;;10.05;;
44588;SDS011;30298;52.562;13.414;2022-12-20T12:30:03;19.13;;;10.05;;
44588;SDS011;30298;52.562;13.414;2022-12-20T12:32:39;17.58;;;10.55;;
44588;SDS011;30298;52.562;13.414;2022-12-20T12:45:30;18.23;;;9.90;;
44588;SDS011;30298;52.562;13.414;2022-12-20T12:50:29;16.48;;;9.98;;
44588;SDS011;30298;52.562;13.414;2022-12-20T12:53:03;17.77;;;10.02;;
44588;SDS011;30298;52.562;13.414;2022-12-20T12:55:34;16.67;;;9.65;;
44588;SDS011;30298;52.562;13.414;2022-12-20T12:58:11;16.80;;;9.32;;
44588;SDS011;30298;52.562;13.414;2022-12-20T13:00:47;18.77;;;10.75;;
44588;SDS011;30298;52.562;13.414;2022-12-20T13:03:14;19.98;;;10.63;;
44588;SDS011;30298;52.562;13.414;2022-12-20T13:05:40;17.65;;;9.70;;
44588;SDS011;30298;52.562;13.414;2022-12-20T13:08:13;19.67;;;10.50;;
44588;SDS011;30298;52.562;13.414;2022-12-20T13:13:20;17.83;;;9.50;;
44588;SDS011;30298;52.562;13.414;2022-12-20T13:15:46;18.83;;;9.85;;
44588;SDS011;30298;52.562;13.414;2022-12-20T13:20:37;18.73;;;11.27;;
44588;SDS011;30298;52.562;13.414;2022-12-20T13:25:38;20.45;;;9.50;;
44588;SDS011;30298;52.562;13.414;2022-12-20T13:28:46;19.58;;;11.20;;
44588;SDS011;30298;52.562;13.414;2022-12-20T13:33:19;18.13;;;9.63;;
44588;SDS011;30298;52.562;13.414;2022-12-20T13:35:55;17.83;;;10.73;;
44588;SDS011;30298;52.562;13.414;2022-12-20T13:41:10;18.15;;;10.18;;
44588;SDS011;30298;52.562;13.414;2022-12-20T13:43:40;18.52;;;9.73;;
44588;SDS011;30298;52.562;13.414;2022-12-20T13:51:02;19.02;;;10.93;;
44588;SDS011;30298;52.562;13.414;2022-12-20T13:53:27;19.58;;;10.77;;
44588;SDS011;30298;52.562;13.414;2022-12-20T13:55:53;17.87;;;10.37;;
44588;SDS011;30298;52.562;13.414;2022-12-20T13:58:20;17.63;;;9.98;;
44588;SDS011;30298;52.562;13.414;2022-12-20T14:00:47;18.33;;;10.00;;
44588;SDS011;30298;52.562;13.414;2022-12-20T14:03:19;20.60;;;10.93;;
44588;SDS011;30298;52.562;13.414;2022-12-20T14:05:45;18.30;;;9.77;;
44588;SDS011;30298;52.562;13.414;2022-12-20T14:08:15;15.90;;;9.80;;
44588;SDS011;30298;52.562;13.414;2022-12-20T14:10:41;15.85;;;9.50;;
44588;SDS011;30298;52.562;13.414;2022-12-20T14:13:23;17.33;;;9.67;;
44588;SDS011;30298;52.562;13.414;2022-12-20T14:15:49;21.50;;;10.73;;
44588;SDS011;30298;52.562;13.414;2022-12-20T14:20:43;18.83;;;11.20;;
44588;SDS011;30298;52.562;13.414;2022-12-20T14:23:11;18.73;;;10.23;;
44588;SDS011;30298;52.562;13.414;2022-12-20T14:28:04;17.23;;;10.40;;
44588;SDS011;30298;52.562;13.414;2022-12-20T14:30:40;20.52;;;10.35;;
44588;SDS011;30298;52.562;13.414;2022-12-20T14:33:14;17.77;;;10.38;;
44588;SDS011;30298;52.562;13.414;2022-12-20T14:35:46;21.27;;;11.52;;
44588;SDS011;30298;52.562;13.414;2022-12-20T14:38:18;19.65;;;11.30;;
44588;SDS011;30298;52.562;13.414;2022-12-20T14:40:44;18.60;;;10.23;;
44588;SDS011;30298;52.562;13.414;2022-12-20T14:43:19;17.77;;;10.73;;
44588;SDS011;30298;52.562;13.414;2022-12-20T14:45:48;18.30;;;9.35;;
44588;SDS011;30298;52.562;13.414;2022-12-20T14:48:14;18.23;;;10.30;;
44588;SDS011;30298;52.562;13.414;2022-12-20T14:50:44;20.13;;;11.48;;
44588;SDS011;30298;52.562;13.414;2022-12-20T14:53:16;20.38;;;11.27;;
44588;SDS011;30298;52.562;13.414;2022-12-20T14:55:45;20.10;;;11.38;;
44588;SDS011;30298;52.562;13.414;2022-12-20T14:58:25;22.05;;;10.65;;
44588;SDS011;30298;52.562;13.414;2022-12-20T15:01:33;19.48;;;11.90;;
44588;SDS011;30298;52.562;13.414;2022-12-20T15:03:53;22.30;;;11.15;;
44588;SDS011;30298;52.562;13.414;2022-12-20T15:09:03;20.48;;;11.57;;
44588;SDS011;30298;52.562;13.414;2022-12-20T15:11:29;20.77;;;11.35;;
44588;SDS011;30298;52.562;13.414;2022-12-20T15:13:55;19.35;;;11.27;;
44588;SDS011;30298;52.562;13.414;2022-12-20T15:16:21;20.55;;;10.82;;
44588;SDS011;30298;52.562;13.414;2022-12-20T15:21:12;19.55;;;10.70;;
44588;SDS011;30298;52.562;13.414;2022-12-20T15:23:49;23.35;;;12.07;;
44588;SDS011;30298;52.562;13.414;2022-12-20T15:26:16;22.23;;;11.52;;
44588;SDS011;30298;52.562;13.414;2022-12-20T15:28:41;23.52;;;11.45;;
44588;SDS011;30298;52.562;13.414;2022-12-20T15:31:10;23.30;;;12.23;;
44588;SDS011;30298;52.562;13.414;2022-12-20T15:33:37;20.77;;;11.23;;
44588;SDS011;30298;52.562;13.414;2022-12-20T15:36:03;22.17;;;11.20;;
44588;SDS011;30298;52.562;13.414;2022-12-20T15:38:28;24.13;;;10.87;;
44588;SDS011;30298;52.562;13.414;2022-12-20T15:40:54;21.80;;;11.60;;
44588;SDS011;30298;52.562;13.414;2022-12-20T15:43:20;21.52;;;11.75;;
44588;SDS011;30298;52.562;13.414;2022-12-20T15:45:48;23.42;;;12.18;;
44588;SDS011;30298;52.562;13.414;2022-12-20T15:48:21;20.92;;;11.60;;
44588;SDS011;30298;52.562;13.414;2022-12-20T15:50:51;22.38;;;11.43;;
44588;SDS011;30298;52.562;13.414;2022-12-20T15:53:18;24.05;;;12.30;;
44588;SDS011;30298;52.562;13.414;2022-12-20T15:55:47;21.13;;;12.02;;
44588;SDS011;30298;52.562;13.414;2022-12-20T15:58:12;23.20;;;12.77;;
44588;SDS011;30298;52.562;13.414;2022-12-20T16:00:38;23.80;;;13.07;;
44588;SDS011;30298;52.562;13.414;2022-12-20T16:03:06;23.88;;;12.50;;
44588;SDS011;30298;52.562;13.414;2022-12-20T16:05:32;23.58;;;11.88;;
44588;SDS011;30298;52.562;13.414;2022-12-20T16:07:59;21.42;;;11.93;;
44588;SDS011;30298;52.562;13.414;2022-12-20T16:10:24;23.30;;;12.50;;
44588;SDS011;30298;52.562;13.414;2022-12-20T16:12:50;25.08;;;12.85;;
44588;SDS011;30298;52.562;13.414;2022-12-20T16:15:20;24.33;;;12.53;;
44588;SDS011;30298;52.562;13.414;2022-12-20T16:17:45;22.15;;;12.60;;
44588;SDS011;30298;52.562;13.414;2022-12-20T16:20:12;27.63;;;12.73;;
44588;SDS011;30298;52.562;13.414;2022-12-20T16:22:38;23.15;;;12.98;;